Meteo Giornale » Osservazioni meteo Italia » Falconara

ore: 00:50 - Osservazioni Meteo Falconara
Lat. 43° 37' N Lon. 13° 22' E Alt. 12 metri s.l.m.

foschia Europe/Rome

11 °C

Foschia

Temp. 24 Ore

9 °C

19 °C

Nord

5.5 Km/h

Dew point 10 °C

Umidità 93 %

Visibilità  5 Km

Il sole sorge alle ore 07:24

Il sole tramonta alle ore 18:17

Data e Ora Cielo e Fenomeni T °C DP °C Um. % Pres. hPa Vis. km Vento km/h
Oggi h: 00:50 foschia Foschia 11 10 93 1018 5 N 5.5
Ieri h: 23:50 foschia Foschia 12 11 93 1018 4 S 7.4
Ieri h: 22:50 foschia Foschia 11 11 100 1018 4 N 5.5
Ieri h: 21:50 foschia Foschia 13 12 93 1018 6 N 5.5
Ieri h: 20:50 sereno Sereno 13 13 100 1018 6 N 3.7
Ieri h: 19:50 sereno Sereno 16 15 93 1018 6 N 5.5
Ieri h: 18:50 foschia Foschia 18 16 88 1018 5 N 3.7
Ieri h: 17:50 foschia Foschia 19 17 88 1018 4 E/NE 9.3
Ieri h: 16:50 foschia Foschia 19 17 88 1018 4 NE 11.1
Ieri h: 15:50 foschia Foschia 19 17 88 1018 4 N/NE 13
Ieri h: 14:50 foschia Foschia 19 16 82 1018 5 NE 14.8
Ieri h: 13:50 sereno Sereno 19 16 82 1019 7 N/NE 13
Ieri h: 12:50 foschia Foschia 19 16 82 1020 5 NE 11.1
Ieri h: 11:50 foschia Foschia 18 16 88 1020 5 N 7.4
Ieri h: 10:50 poco_nuvoloso Nebbia nelle Vicinanze 17 14 82 1020 4 N 1.8
Ieri h: 09:50 sereno Nebbia nelle Vicinanze 14 12 87 1020 10 SO 7.4
Ieri h: 08:50 nebbia Banco di Nebbia 11 10 93 1020 3 S 7.4
Ieri h: 07:58 nebbia NebbiaParziale 9 9 100 1020 0.8 N 5.5
Ieri h: 07:50 nebbia Banco di Nebbia 9 9 100 1020 3 N 5.5
Ieri h: 07:12 nebbia Banco di Nebbia 9 9 100 1020 1 N 5.5
Ieri h: 06:50 nebbia Nebbia 9 9 100 1020 0.5 N 3.7
Ieri h: 05:50 nebbia Banco di Nebbia 10 10 100 1020 1 S 7.4
Ieri h: 03:50 foschia Foschia 11 10 93 1021 3 N 3.7
Ieri h: 02:50 foschia Foschia 10 9 93 1021 3 N 5.5
Ieri h: 01:50 foschia Foschia 12 11 93 1021 3 N 3.7